Scotia — MXHR6 — position and weather

sailwx.info

Track history (hours):
 
Tides and Currents Weather Stations Pressure Air Temp Water Temp Dewpoint Dewpoint Depression Visibility Wind Speed Wind Dir Waves Ship Positions

Oceanographic research ship Scotia (UK)

Detailed information on ship capabilities available from University of Delaware's Ocean Information Center.

Last reported at 2017-Dec-18 09:00 UTC. Time now 2017-Dec-18 09:17 UTC.
Position N 57°09' W 002°05'.

Length 68.6 m; beam 15 m; draft 5.6 m.

Type: Other ship. MMSI: 234973000.

Date/timePositionNaut miles runAvg speedWind from/ knotsBaromVisibWave heightAir tempDewpointWater temp
2017-Dec-18 09:00N 57°09' W 002°05'0 0.0
2017-Dec-18 08:30N 57°09' W 002°05'0 0.0
2017-Dec-18 08:00N 57°09' W 002°05'0 0.0
2017-Dec-18 07:30N 57°09' W 002°05'0 0.0
2017-Dec-18 07:00N 57°09' W 002°05'0 0.0
2017-Dec-18 06:30N 57°09' W 002°05'0 0.0
2017-Dec-18 06:00N 57°09' W 002°05'0 0.0
2017-Dec-18 05:30N 57°09' W 002°05'0 0.0
2017-Dec-18 05:00N 57°09' W 002°05'0 0.0
2017-Dec-18 04:30N 57°09' W 002°05'0 0.0
2017-Dec-18 04:00N 57°09' W 002°05'0 0.0
2017-Dec-18 03:30N 57°09' W 002°05'0 0.0
2017-Dec-18 03:00N 57°09' W 002°05'0 0.0
2017-Dec-18 02:30N 57°09' W 002°05'0 0.0
2017-Dec-18 02:00N 57°09' W 002°05'0 0.0
2017-Dec-18 01:30N 57°09' W 002°05'0 0.0
2017-Dec-18 01:00N 57°09' W 002°05'0 0.0
2017-Dec-18 00:30N 57°09' W 002°05'0 0.0
2017-Dec-18 00:00N 57°09' W 002°05'0 0.0
2017-Dec-17 23:30N 57°09' W 002°05'0 0.0
2017-Dec-17 23:00N 57°09' W 002°05'0 0.0
2017-Dec-17 22:30N 57°09' W 002°05'0 0.0
2017-Dec-17 22:00N 57°09' W 002°05'0 0.0
2017-Dec-17 21:30N 57°09' W 002°05'0 0.0
2017-Dec-17 21:00N 57°09' W 002°05'1 2.0
2017-Dec-17 20:30N 57°09' W 002°03'1 2.0
2017-Dec-17 20:01N 57°10' W 002°02'3 5.6
2017-Dec-17 19:30N 57°12' W 001°58'1 2.4
2017-Dec-17 19:00N 57°13' W 001°57'1 2.5
2017-Dec-17 18:31N 57°14' W 001°56'3 6.0
2017-Dec-17 18:00N 57°16' W 001°53'3 5.7
2017-Dec-17 17:31N 57°19' W 001°50'3 5.7
2017-Dec-17 17:00N 57°21' W 001°47'3 6.0
2017-Dec-17 16:31N 57°24' W 001°45'3 5.5
2017-Dec-17 16:01N 57°26' W 001°42'3 5.9
2017-Dec-17 15:31N 57°29' W 001°39'3 6.4
2017-Dec-17 15:01N 57°32' W 001°39'510.9
2017-Dec-17 14:31N 57°37' W 001°42'612.3
2017-Dec-17 14:00N 57°41' W 001°50'612.9
2017-Dec-17 13:31N 57°44' W 002°01'613.0
2017-Dec-17 13:01N 57°45' W 002°13'612.5
2017-Dec-17 12:29N 57°45' W 002°25'  
2017-Dec-08 23:53N 57°02' W 001°38'2 5.3
2017-Dec-08 23:27N 57°02' W 001°42'2 4.2
2017-Dec-08 23:00N 57°03' W 001°45'2 4.2
2017-Dec-08 22:30N 57°03' W 001°49'2 4.0
2017-Dec-08 22:00N 57°04' W 001°53'1 2.7
2017-Dec-08 21:30N 57°03' W 001°55'1 2.2
2017-Dec-08 21:00N 57°02' W 001°55'1 3.0
2017-Dec-08 20:30N 57°01' W 001°54'1 1.9
2017-Dec-08 20:00N 56°60' W 001°54'1 2.8
2017-Dec-08 19:30N 56°59' W 001°55'1 2.9
2017-Dec-08 19:00N 56°57' W 001°56'1 2.0
2017-Dec-08 18:30N 56°58' W 001°55'3 4.9
2017-Dec-08 17:49N 57°01' W 001°54'2 4.8
2017-Dec-08 17:30N 57°03' W 001°53'1 2.7
2017-Dec-08 17:00N 57°03' W 001°51'2 3.0
2017-Dec-08 16:30N 57°03' W 001°48'1 2.9
2017-Dec-08 16:00N 57°02' W 001°45'2 3.0
2017-Dec-08 15:27N 57°02' W 001°42'2 3.8
2017-Dec-08 14:55N 57°02' W 001°39'5 1.5
2017-Dec-08 11:38N 57°00' W 001°47'0 0.6
2017-Dec-08 11:30N 57°00' W 001°47'2 4.0
2017-Dec-08 10:57N 56°60' W 001°51'510.5
2017-Dec-08 10:29N 56°59' W 002°00'3 2.1
2017-Dec-08 09:02N 57°01' W 002°04'  
Track history (hours):
 
Tides and Currents Weather Stations Pressure Air Temp Water Temp Dewpoint Dewpoint Depression Visibility Wind Speed Wind Dir Waves Ship Positions

Oceanographic research ship Scotia (UK)

Detailed information on ship capabilities available from University of Delaware's Ocean Information Center.

Last reported at 2017-Dec-18 09:00 UTC. Time now 2017-Dec-18 09:17 UTC.
Position N 57°09' W 002°05'.

Length 68.6 m; beam 15 m; draft 5.6 m.

Type: Other ship. MMSI: 234973000.

Date/timePositionNaut miles runAvg speedWind from/ knotsBaromVisibWave heightAir tempDewpointWater temp
2017-Dec-18 09:00N 57°09' W 002°05'0 0.0
2017-Dec-18 08:30N 57°09' W 002°05'0 0.0
2017-Dec-18 08:00N 57°09' W 002°05'0 0.0
2017-Dec-18 07:30N 57°09' W 002°05'0 0.0
2017-Dec-18 07:00N 57°09' W 002°05'0 0.0
2017-Dec-18 06:30N 57°09' W 002°05'0 0.0
2017-Dec-18 06:00N 57°09' W 002°05'0 0.0
2017-Dec-18 05:30N 57°09' W 002°05'0 0.0
2017-Dec-18 05:00N 57°09' W 002°05'0 0.0
2017-Dec-18 04:30N 57°09' W 002°05'0 0.0
2017-Dec-18 04:00N 57°09' W 002°05'0 0.0
2017-Dec-18 03:30N 57°09' W 002°05'0 0.0
2017-Dec-18 03:00N 57°09' W 002°05'0 0.0
2017-Dec-18 02:30N 57°09' W 002°05'0 0.0
2017-Dec-18 02:00N 57°09' W 002°05'0 0.0
2017-Dec-18 01:30N 57°09' W 002°05'0 0.0
2017-Dec-18 01:00N 57°09' W 002°05'0 0.0
2017-Dec-18 00:30N 57°09' W 002°05'0 0.0
2017-Dec-18 00:00N 57°09' W 002°05'0 0.0
2017-Dec-17 23:30N 57°09' W 002°05'0 0.0
2017-Dec-17 23:00N 57°09' W 002°05'0 0.0
2017-Dec-17 22:30N 57°09' W 002°05'0 0.0
2017-Dec-17 22:00N 57°09' W 002°05'0 0.0
2017-Dec-17 21:30N 57°09' W 002°05'0 0.0
2017-Dec-17 21:00N 57°09' W 002°05'1 2.0
2017-Dec-17 20:30N 57°09' W 002°03'1 2.0
2017-Dec-17 20:01N 57°10' W 002°02'3 5.6
2017-Dec-17 19:30N 57°12' W 001°58'1 2.4
2017-Dec-17 19:00N 57°13' W 001°57'1 2.5
2017-Dec-17 18:31N 57°14' W 001°56'3 6.0
2017-Dec-17 18:00N 57°16' W 001°53'3 5.7
2017-Dec-17 17:31N 57°19' W 001°50'3 5.7
2017-Dec-17 17:00N 57°21' W 001°47'3 6.0
2017-Dec-17 16:31N 57°24' W 001°45'3 5.5
2017-Dec-17 16:01N 57°26' W 001°42'3 5.9
2017-Dec-17 15:31N 57°29' W 001°39'3 6.4
2017-Dec-17 15:01N 57°32' W 001°39'510.9
2017-Dec-17 14:31N 57°37' W 001°42'612.3
2017-Dec-17 14:00N 57°41' W 001°50'612.9
2017-Dec-17 13:31N 57°44' W 002°01'613.0
2017-Dec-17 13:01N 57°45' W 002°13'612.5
2017-Dec-17 12:29N 57°45' W 002°25'  
2017-Dec-08 23:53N 57°02' W 001°38'2 5.3
2017-Dec-08 23:27N 57°02' W 001°42'2 4.2
2017-Dec-08 23:00N 57°03' W 001°45'2 4.2
2017-Dec-08 22:30N 57°03' W 001°49'2 4.0
2017-Dec-08 22:00N 57°04' W 001°53'1 2.7
2017-Dec-08 21:30N 57°03' W 001°55'1 2.2
2017-Dec-08 21:00N 57°02' W 001°55'1 3.0
2017-Dec-08 20:30N 57°01' W 001°54'1 1.9
2017-Dec-08 20:00N 56°60' W 001°54'1 2.8
2017-Dec-08 19:30N 56°59' W 001°55'1 2.9
2017-Dec-08 19:00N 56°57' W 001°56'1 2.0
2017-Dec-08 18:30N 56°58' W 001°55'3 4.9
2017-Dec-08 17:49N 57°01' W 001°54'2 4.8
2017-Dec-08 17:30N 57°03' W 001°53'1 2.7
2017-Dec-08 17:00N 57°03' W 001°51'2 3.0
2017-Dec-08 16:30N 57°03' W 001°48'1 2.9
2017-Dec-08 16:00N 57°02' W 001°45'2 3.0
2017-Dec-08 15:27N 57°02' W 001°42'2 3.8
2017-Dec-08 14:55N 57°02' W 001°39'5 1.5
2017-Dec-08 11:38N 57°00' W 001°47'0 0.6
2017-Dec-08 11:30N 57°00' W 001°47'2 4.0
2017-Dec-08 10:57N 56°60' W 001°51'510.5
2017-Dec-08 10:29N 56°59' W 002°00'3 2.1
2017-Dec-08 09:02N 57°01' W 002°04'  

Dump ship's entire track history